Time;durP1;ratioP1;P1;durP2;ratioP2;P2;SDS_P1;SDS_P2;PMS_P1;PMS_P2;Temp;Humidity;BMP_temperature;BMP_pressure;BME280_temperature;BME280_humidity;BME280_pressure;Samples;Min_cycle;Max_cycle;Signal;HPM_P1;HPM_P2
2023/01/23 00:00:54;;;;;;;7.10;6.60;;;;;;;;;;5029075;28;20436;-66
2023/01/23 00:03:20;;;;;;;7.50;6.80;;;;;;;;;;5030180;28;20474;-67
2023/01/23 00:05:45;;;;;;;8.57;7.80;;;;;;;;;;5029202;28;20463;-67
2023/01/23 00:08:11;;;;;;;9.20;8.40;;;;;;;;;;5028334;28;20439;-67
2023/01/23 00:10:38;;;;;;;6.90;6.40;;;;;;;;;;5029805;28;20442;-66
2023/01/23 00:13:04;;;;;;;8.07;6.87;;;;;;;;;;5029838;28;20482;-67
2023/01/23 00:15:32;;;;;;;7.30;6.70;;;;;;;;;;5029331;28;20430;-66
2023/01/23 00:17:57;;;;;;;7.20;6.70;;;;;;;;;;5029597;28;20462;-69
2023/01/23 00:20:23;;;;;;;7.50;7.00;;;;;;;;;;5029176;28;20443;-67
2023/01/23 00:22:49;;;;;;;6.80;6.30;;;;;;;;;;5029720;28;20439;-68
2023/01/23 00:25:15;;;;;;;6.50;6.10;;;;;;;;;;5029668;28;20427;-68
2023/01/23 00:27:41;;;;;;;7.70;7.10;;;;;;;;;;5029885;28;20439;-68
2023/01/23 00:30:08;;;;;;;6.70;6.13;;;;;;;;;;5029639;28;20787;-67
2023/01/23 00:32:34;;;;;;;6.23;5.90;;;;;;;;;;5028987;28;20987;-67
2023/01/23 00:35:00;;;;;;;7.60;7.00;;;;;;;;;;5029579;28;20955;-66
2023/01/23 00:37:25;;;;;;;6.67;6.10;;;;;;;;;;5029211;28;20439;-67
2023/01/23 00:39:51;;;;;;;5.57;5.27;;;;;;;;;;5011787;28;20440;-67
2023/01/23 00:42:17;;;;;;;6.30;5.90;;;;;;;;;;5028049;28;20461;-67
2023/01/23 00:44:43;;;;;;;6.00;5.60;;;;;;;;;;5028874;28;20493;-66
2023/01/23 00:47:09;;;;;;;6.30;6.00;;;;;;;;;;5029745;28;20427;-70
2023/01/23 00:49:35;;;;;;;6.50;6.00;;;;;;;;;;5011343;28;20490;-68
2023/01/23 00:52:01;;;;;;;6.30;6.00;;;;;;;;;;5028080;28;20427;-67
2023/01/23 00:54:27;;;;;;;6.60;6.20;;;;;;;;;;5029403;28;20521;-67
2023/01/23 00:56:53;;;;;;;7.33;6.63;;;;;;;;;;5029360;28;20931;-67
2023/01/23 00:59:19;;;;;;;7.07;6.57;;;;;;;;;;5028264;28;20470;-67
2023/01/23 01:01:45;;;;;;;5.60;5.30;;;;;;;;;;5028298;28;20438;-69
2023/01/23 01:04:11;;;;;;;6.70;6.20;;;;;;;;;;5028181;28;20932;-70
2023/01/23 01:06:37;;;;;;;6.70;6.20;;;;;;;;;;5028676;28;20459;-67
2023/01/23 01:09:03;;;;;;;6.00;5.60;;;;;;;;;;5029165;28;20522;-69
2023/01/23 01:11:30;;;;;;;6.13;5.73;;;;;;;;;;5029130;28;20762;-67
2023/01/23 01:13:56;;;;;;;6.53;5.97;;;;;;;;;;5028835;28;20495;-66
2023/01/23 01:16:23;;;;;;;6.30;5.90;;;;;;;;;;5028866;28;20427;-67
2023/01/23 01:18:49;;;;;;;8.20;7.57;;;;;;;;;;5028693;28;20438;-67
2023/01/23 01:21:16;;;;;;;5.10;4.90;;;;;;;;;;5028864;28;20991;-67
2023/01/23 01:23:42;;;;;;;6.73;6.30;;;;;;;;;;5029044;28;20435;-67
2023/01/23 01:26:08;;;;;;;5.73;5.33;;;;;;;;;;5028981;28;20895;-67
2023/01/23 01:28:36;;;;;;;7.47;6.97;;;;;;;;;;5029016;28;20452;-67
2023/01/23 01:31:04;;;;;;;6.80;6.20;;;;;;;;;;5028028;28;20439;-67
2023/01/23 01:33:31;;;;;;;7.37;6.67;;;;;;;;;;5028747;28;20487;-67
2023/01/23 01:35:57;;;;;;;6.80;6.17;;;;;;;;;;5028610;28;20431;-68
2023/01/23 01:38:23;;;;;;;6.50;6.10;;;;;;;;;;5028393;28;20435;-67
2023/01/23 01:40:49;;;;;;;5.90;5.40;;;;;;;;;;5028258;28;20433;-69
2023/01/23 01:43:20;;;;;;;5.80;5.50;;;;;;;;;;5028068;28;20469;-67
2023/01/23 01:46:05;;;;;;;6.60;5.07;;;;;;;;;;5028831;28;20440;-67
2023/01/23 01:48:39;;;;;;;7.47;6.77;;;;;;;;;;5028468;28;20435;-66
2023/01/23 01:51:20;;;;;;;7.10;6.60;;;;;;;;;;5028810;28;20490;-67
2023/01/23 01:53:48;;;;;;;7.00;6.40;;;;;;;;;;5023787;28;20492;-66
2023/01/23 01:56:14;;;;;;;7.50;6.90;;;;;;;;;;5032164;28;20538;-68
2023/01/23 01:58:41;;;;;;;6.90;6.40;;;;;;;;;;5013924;28;20443;-66
2023/01/23 02:01:07;;;;;;;7.33;6.63;;;;;;;;;;5032145;28;20923;-69
2023/01/23 02:03:33;;;;;;;7.30;6.70;;;;;;;;;;5032268;28;20454;-67
2023/01/23 02:05:59;;;;;;;7.37;6.83;;;;;;;;;;5031822;28;20443;-68
2023/01/23 02:08:30;;;;;;;5.90;5.53;;;;;;;;;;5031337;28;20445;-69
2023/01/23 02:10:59;;;;;;;5.47;5.10;;;;;;;;;;5031914;28;20439;-69
2023/01/23 02:13:32;;;;;;;8.73;6.60;;;;;;;;;;5031370;28;21153;-67
2023/01/23 02:15:59;;;;;;;5.87;5.37;;;;;;;;;;5032031;28;20434;-66
2023/01/23 02:18:26;;;;;;;6.43;6.00;;;;;;;;;;5031574;28;20439;-66
2023/01/23 02:20:53;;;;;;;5.83;5.53;;;;;;;;;;5031743;28;20803;-67
2023/01/23 02:23:23;;;;;;;5.37;5.07;;;;;;;;;;5032026;28;20439;-67
2023/01/23 02:25:52;;;;;;;6.60;5.87;;;;;;;;;;5031842;28;20442;-67
2023/01/23 02:28:18;;;;;;;5.40;5.20;;;;;;;;;;5031377;28;20451;-66
2023/01/23 02:30:49;;;;;;;5.43;5.03;;;;;;;;;;5031496;28;20436;-68
2023/01/23 02:33:21;;;;;;;7.73;6.93;;;;;;;;;;5031785;28;20482;-68
2023/01/23 02:35:47;;;;;;;7.20;6.60;;;;;;;;;;5031853;28;20431;-67
2023/01/23 02:38:13;;;;;;;8.20;7.50;;;;;;;;;;5030934;28;20439;-67
2023/01/23 02:40:40;;;;;;;7.17;6.67;;;;;;;;;;5030936;28;20436;-67
2023/01/23 02:43:11;;;;;;;5.93;5.57;;;;;;;;;;5031089;28;20505;-67
2023/01/23 02:45:38;;;;;;;6.50;6.03;;;;;;;;;;5031590;28;20764;-67
2023/01/23 02:48:06;;;;;;;8.17;7.57;;;;;;;;;;5031353;28;20450;-67
2023/01/23 02:50:33;;;;;;;7.50;6.90;;;;;;;;;;5030980;28;20481;-67
2023/01/23 02:52:59;;;;;;;7.73;6.93;;;;;;;;;;5031176;28;20501;-67
2023/01/23 02:55:36;;;;;;;6.40;6.10;;;;;;;;;;5030730;28;20447;-66
2023/01/23 03:00:47;;;;;;;7.70;7.10;;;;;;;;;;5031071;28;20438;-68
2023/01/23 03:03:14;;;;;;;6.90;6.40;;;;;;;;;;5031432;28;20439;-68
2023/01/23 03:05:40;;;;;;;5.23;4.90;;;;;;;;;;5029643;28;20436;-67
2023/01/23 03:08:06;;;;;;;6.23;5.90;;;;;;;;;;5030800;28;20451;-67
2023/01/23 03:10:32;;;;;;;8.60;7.83;;;;;;;;;;5030493;28;20435;-66
2023/01/23 03:13:02;;;;;;;7.27;6.80;;;;;;;;;;5030865;28;20494;-66
2023/01/23 03:15:29;;;;;;;7.73;6.97;;;;;;;;;;5031630;28;20523;-67
2023/01/23 03:17:55;;;;;;;7.67;7.13;;;;;;;;;;5029973;28;20538;-65
2023/01/23 03:20:22;;;;;;;6.80;6.30;;;;;;;;;;5030267;28;20940;-66
2023/01/23 03:22:48;;;;;;;7.73;7.13;;;;;;;;;;5030777;28;20469;-67
2023/01/23 03:25:14;;;;;;;7.47;6.90;;;;;;;;;;5030796;28;20810;-66
2023/01/23 03:27:40;;;;;;;6.20;5.80;;;;;;;;;;5031063;28;20439;-67
2023/01/23 03:30:14;;;;;;;7.47;6.80;;;;;;;;;;5030347;28;20501;-66
2023/01/23 03:32:40;;;;;;;8.70;7.03;;;;;;;;;;5013180;28;21067;-68
2023/01/23 03:35:09;;;;;;;7.30;6.80;;;;;;;;;;5013047;28;21209;-66
2023/01/23 03:37:35;;;;;;;10.07;7.10;;;;;;;;;;5030238;28;20518;-68
2023/01/23 03:42:45;;;;;;;6.53;6.23;;;;;;;;;;5030358;28;20421;-66
2023/01/23 03:45:11;;;;;;;7.43;6.93;;;;;;;;;;5030342;28;21580;-67
2023/01/23 03:47:37;;;;;;;8.03;7.33;;;;;;;;;;5030082;28;20439;-68
2023/01/23 03:50:03;;;;;;;6.93;6.43;;;;;;;;;;5012013;28;20490;-67
2023/01/23 03:52:29;;;;;;;4.47;4.27;;;;;;;;;;5011523;28;20471;-67
2023/01/23 03:54:55;;;;;;;7.37;6.87;;;;;;;;;;5030432;28;20497;-67
2023/01/23 03:57:21;;;;;;;6.03;5.60;;;;;;;;;;5030233;28;20431;-67
2023/01/23 03:59:47;;;;;;;7.00;6.50;;;;;;;;;;5029724;28;20431;-66
2023/01/23 04:02:13;;;;;;;7.43;6.73;;;;;;;;;;5029635;28;20518;-67
2023/01/23 04:04:39;;;;;;;7.23;6.73;;;;;;;;;;5012066;28;20518;-66
2023/01/23 04:07:05;;;;;;;7.30;6.70;;;;;;;;;;5029524;28;20451;-66
2023/01/23 04:09:31;;;;;;;7.30;6.80;;;;;;;;;;5030306;28;20435;-66
2023/01/23 04:11:58;;;;;;;6.90;6.20;;;;;;;;;;5029502;28;20431;-66
2023/01/23 04:14:25;;;;;;;7.10;6.50;;;;;;;;;;5028997;28;20490;-66
2023/01/23 04:16:51;;;;;;;8.00;7.50;;;;;;;;;;5029634;28;20442;-67
2023/01/23 04:19:18;;;;;;;6.73;6.23;;;;;;;;;;5029951;28;20847;-67
2023/01/23 04:21:45;;;;;;;7.40;6.80;;;;;;;;;;5029432;28;20432;-67
2023/01/23 04:24:11;;;;;;;7.83;7.23;;;;;;;;;;5029445;28;20868;-67
2023/01/23 04:26:37;;;;;;;8.80;7.20;;;;;;;;;;5029376;28;20985;-66
2023/01/23 04:29:03;;;;;;;7.83;7.07;;;;;;;;;;5029311;28;20437;-66
2023/01/23 04:31:29;;;;;;;6.90;6.50;;;;;;;;;;5029165;28;20923;-68
2023/01/23 04:33:55;;;;;;;7.70;6.73;;;;;;;;;;5029410;28;20493;-67
2023/01/23 04:36:21;;;;;;;6.00;5.47;;;;;;;;;;5029468;28;20427;-66
2023/01/23 04:38:47;;;;;;;6.33;5.73;;;;;;;;;;5029135;28;20943;-66
2023/01/23 04:41:20;;;;;;;5.57;5.20;;;;;;;;;;5029259;28;20831;-66
2023/01/23 04:43:46;;;;;;;5.80;5.50;;;;;;;;;;5029214;28;20506;-68
2023/01/23 04:46:12;;;;;;;5.20;5.00;;;;;;;;;;5029091;28;20526;-67
2023/01/23 04:48:38;;;;;;;6.50;6.00;;;;;;;;;;5028601;28;20450;-70
2023/01/23 04:51:04;;;;;;;5.77;5.47;;;;;;;;;;5029048;28;20483;-66
2023/01/23 04:53:30;;;;;;;6.10;5.60;;;;;;;;;;5011600;28;20494;-68
2023/01/23 04:55:56;;;;;;;6.10;5.70;;;;;;;;;;5029102;28;20438;-67
2023/01/23 04:58:22;;;;;;;5.80;5.40;;;;;;;;;;5028305;28;20922;-66
2023/01/23 05:00:48;;;;;;;5.40;5.00;;;;;;;;;;5028232;28;20439;-69
2023/01/23 05:03:14;;;;;;;4.90;4.70;;;;;;;;;;5029272;28;20447;-66
2023/01/23 05:05:43;;;;;;;4.30;4.10;;;;;;;;;;5029481;28;20518;-67
2023/01/23 05:08:09;;;;;;;5.23;4.93;;;;;;;;;;5029065;28;20446;-67
2023/01/23 05:10:35;;;;;;;4.37;4.17;;;;;;;;;;5029177;28;20474;-67
2023/01/23 05:13:01;;;;;;;4.53;4.23;;;;;;;;;;5028497;28;20545;-67
2023/01/23 05:15:27;;;;;;;4.90;4.63;;;;;;;;;;5011153;28;20431;-66
2023/01/23 05:17:52;;;;;;;4.20;4.10;;;;;;;;;;5028917;28;20447;-66
2023/01/23 05:20:19;;;;;;;2.70;2.60;;;;;;;;;;5029162;28;20442;-67
2023/01/23 05:22:51;;;;;;;4.10;3.90;;;;;;;;;;5028930;28;20867;-67
2023/01/23 05:25:26;;;;;;;4.70;4.40;;;;;;;;;;5029254;28;20463;-66
2023/01/23 05:27:53;;;;;;;4.07;3.97;;;;;;;;;;5027792;28;20431;-68
2023/01/23 05:30:21;;;;;;;4.37;4.27;;;;;;;;;;5031752;28;20423;-68
2023/01/23 05:32:47;;;;;;;3.90;3.70;;;;;;;;;;5033298;28;20470;-68
2023/01/23 05:35:13;;;;;;;4.87;4.67;;;;;;;;;;5032478;28;20441;-68
2023/01/23 05:37:39;;;;;;;4.10;3.90;;;;;;;;;;5032301;28;20804;-70
2023/01/23 05:40:07;;;;;;;4.40;4.10;;;;;;;;;;5032710;28;20939;-68
2023/01/23 05:42:33;;;;;;;5.67;5.33;;;;;;;;;;5030636;28;20427;-68
2023/01/23 05:44:59;;;;;;;5.43;4.83;;;;;;;;;;5032338;28;20458;-69
2023/01/23 05:47:26;;;;;;;4.43;4.30;;;;;;;;;;5033188;28;20903;-68
2023/01/23 05:49:52;;;;;;;5.43;5.10;;;;;;;;;;5032364;28;20569;-69
2023/01/23 05:52:18;;;;;;;5.43;5.03;;;;;;;;;;5031525;28;20533;-68
2023/01/23 05:54:44;;;;;;;5.83;5.43;;;;;;;;;;5014694;28;20443;-68
2023/01/23 05:57:10;;;;;;;5.50;5.07;;;;;;;;;;5032597;28;20925;-69
2023/01/23 05:59:36;;;;;;;5.87;5.37;;;;;;;;;;5014138;28;20443;-69
2023/01/23 06:02:02;;;;;;;4.90;4.70;;;;;;;;;;5031897;28;20442;-69
2023/01/23 06:04:28;;;;;;;4.73;4.47;;;;;;;;;;5013925;28;20474;-69
2023/01/23 06:06:54;;;;;;;3.17;3.10;;;;;;;;;;5013939;28;20953;-72
2023/01/23 06:09:20;;;;;;;4.80;4.50;;;;;;;;;;5032482;28;20435;-68
2023/01/23 06:11:46;;;;;;;3.90;3.77;;;;;;;;;;5031899;28;20484;-69
2023/01/23 06:14:12;;;;;;;4.40;4.30;;;;;;;;;;5031417;28;20522;-72
2023/01/23 06:16:37;;;;;;;4.00;3.83;;;;;;;;;;5032110;28;20431;-68
2023/01/23 06:19:04;;;;;;;3.93;3.83;;;;;;;;;;5032224;28;20557;-69
2023/01/23 06:21:30;;;;;;;4.57;4.37;;;;;;;;;;5031360;28;20431;-68
2023/01/23 06:23:58;;;;;;;4.10;3.90;;;;;;;;;;5032154;28;20505;-70
2023/01/23 06:26:23;;;;;;;4.27;3.87;;;;;;;;;;5031486;28;20504;-68
2023/01/23 06:28:49;;;;;;;3.37;3.27;;;;;;;;;;5030965;28;20439;-68
2023/01/23 06:31:16;;;;;;;3.10;3.00;;;;;;;;;;5013871;28;20430;-71
2023/01/23 06:33:42;;;;;;;3.70;3.47;;;;;;;;;;5014376;28;20582;-70
2023/01/23 06:36:08;;;;;;;4.23;4.03;;;;;;;;;;5031439;28;21049;-68
2023/01/23 06:38:34;;;;;;;3.90;3.80;;;;;;;;;;5031760;28;20451;-66
2023/01/23 06:41:00;;;;;;;4.07;3.87;;;;;;;;;;5030790;28;20443;-72
2023/01/23 06:43:26;;;;;;;2.20;2.20;;;;;;;;;;5031106;28;20439;-72
2023/01/23 06:45:52;;;;;;;2.40;2.40;;;;;;;;;;5031647;28;20986;-69
2023/01/23 06:48:18;;;;;;;1.80;1.80;;;;;;;;;;5030401;28;20447;-68
2023/01/23 06:50:44;;;;;;;1.83;1.83;;;;;;;;;;5030316;28;20509;-69
2023/01/23 06:53:13;;;;;;;1.87;1.87;;;;;;;;;;5030034;28;20836;-68
2023/01/23 06:55:39;;;;;;;1.50;1.50;;;;;;;;;;5031432;28;20796;-68
2023/01/23 06:58:05;;;;;;;1.03;1.03;;;;;;;;;;5031406;28;20431;-69
2023/01/23 07:00:33;;;;;;;1.40;1.30;;;;;;;;;;5031110;28;20836;-70
2023/01/23 07:03:02;;;;;;;1.43;1.33;;;;;;;;;;5013728;28;20538;-66
2023/01/23 07:05:30;;;;;;;1.83;1.10;;;;;;;;;;5030351;28;20497;-67
2023/01/23 07:07:56;;;;;;;1.10;1.10;;;;;;;;;;5031665;28;20429;-66
2023/01/23 07:10:22;;;;;;;1.90;1.80;;;;;;;;;;5030802;28;20518;-70
2023/01/23 07:12:49;;;;;;;1.70;1.70;;;;;;;;;;5030870;28;20479;-67
2023/01/23 07:15:15;;;;;;;1.83;1.83;;;;;;;;;;5031064;28;20423;-66
2023/01/23 07:17:41;;;;;;;1.20;1.20;;;;;;;;;;5030969;28;20860;-66
2023/01/23 07:20:08;;;;;;;1.90;1.80;;;;;;;;;;5031441;28;20907;-66
2023/01/23 07:22:34;;;;;;;2.60;1.70;;;;;;;;;;5030624;28;20787;-66
2023/01/23 07:25:00;;;;;;;1.23;1.23;;;;;;;;;;5013104;28;20454;-65
2023/01/23 07:27:26;;;;;;;10.50;1.70;;;;;;;;;;5027998;28;21368;-66
2023/01/23 07:29:52;;;;;;;4.40;1.90;;;;;;;;;;5029632;28;20950;-66
2023/01/23 07:32:18;;;;;;;3.00;2.90;;;;;;;;;;5029261;28;20471;-66
2023/01/23 07:34:44;;;;;;;5.07;4.70;;;;;;;;;;5028627;28;20451;-65
2023/01/23 07:37:10;;;;;;;7.63;6.93;;;;;;;;;;5030292;28;20442;-65
2023/01/23 07:39:36;;;;;;;7.33;3.07;;;;;;;;;;5030226;28;20443;-66
2023/01/23 07:42:02;;;;;;;4.00;3.80;;;;;;;;;;5029324;28;20423;-65
2023/01/23 07:44:28;;;;;;;2.30;2.20;;;;;;;;;;5030227;28;20527;-66
2023/01/23 07:46:54;;;;;;;2.70;2.60;;;;;;;;;;5018399;28;20596;-71
2023/01/23 07:49:20;;;;;;;2.47;2.40;;;;;;;;;;5009799;28;20436;-73
2023/01/23 07:51:46;;;;;;;1.90;1.80;;;;;;;;;;5025820;28;20426;-74
2023/01/23 07:54:12;;;;;;;1.57;1.57;;;;;;;;;;5029433;28;20860;-71
2023/01/23 07:56:38;;;;;;;2.00;1.90;;;;;;;;;;5028805;28;20463;-73
2023/01/23 07:59:04;;;;;;;2.20;1.80;;;;;;;;;;5029380;28;20443;-69
2023/01/23 08:01:30;;;;;;;2.73;2.73;;;;;;;;;;5029289;28;20861;-72
2023/01/23 08:03:56;;;;;;;3.50;3.30;;;;;;;;;;5030294;28;20431;-71
2023/01/23 08:06:22;;;;;;;3.30;3.20;;;;;;;;;;5029616;28;20430;-69
2023/01/23 08:08:48;;;;;;;4.60;4.40;;;;;;;;;;5028017;28;20493;-71
2023/01/23 08:11:14;;;;;;;4.10;3.90;;;;;;;;;;5011968;28;20435;-71
2023/01/23 08:13:40;;;;;;;5.73;4.03;;;;;;;;;;5028604;28;20479;-69
2023/01/23 08:16:07;;;;;;;5.67;5.10;;;;;;;;;;5027974;28;20422;-69
2023/01/23 08:18:33;;;;;;;3.47;3.37;;;;;;;;;;5028525;28;20523;-67
2023/01/23 08:21:00;;;;;;;4.30;4.10;;;;;;;;;;5028456;28;20427;-68
2023/01/23 08:23:30;;;;;;;3.80;3.60;;;;;;;;;;5028959;28;20435;-67
2023/01/23 08:25:58;;;;;;;4.00;3.80;;;;;;;;;;5029035;28;20423;-66
2023/01/23 08:28:24;;;;;;;3.90;3.70;;;;;;;;;;5027117;28;20442;-67
2023/01/23 08:30:50;;;;;;;4.03;3.83;;;;;;;;;;5028453;28;20447;-68
2023/01/23 08:33:17;;;;;;;5.17;4.80;;;;;;;;;;5027983;28;20471;-67
2023/01/23 08:35:53;;;;;;;7.30;4.40;;;;;;;;;;5027100;28;20447;-68
2023/01/23 08:38:19;;;;;;;4.90;4.70;;;;;;;;;;5008406;28;20434;-66
2023/01/23 08:40:45;;;;;;;4.97;4.67;;;;;;;;;;5027387;28;20520;-68
2023/01/23 08:43:12;;;;;;;9.30;4.80;;;;;;;;;;5027534;28;20919;-68
2023/01/23 08:45:39;;;;;;;4.90;4.70;;;;;;;;;;5026841;28;20922;-68
2023/01/23 08:48:05;;;;;;;5.13;4.83;;;;;;;;;;5028464;28;20442;-70
2023/01/23 08:50:31;;;;;;;4.53;4.33;;;;;;;;;;5028671;28;20478;-70
2023/01/23 08:52:57;;;;;;;4.83;4.53;;;;;;;;;;5028764;28;20487;-71
2023/01/23 08:55:23;;;;;;;4.47;4.27;;;;;;;;;;5028171;28;20477;-67
2023/01/23 08:57:49;;;;;;;5.43;5.07;;;;;;;;;;5026902;28;20443;-69
2023/01/23 09:00:15;;;;;;;4.10;4.00;;;;;;;;;;5026924;28;20787;-70
2023/01/23 09:02:41;;;;;;;5.33;4.83;;;;;;;;;;5027239;28;20430;-68
2023/01/23 09:05:08;;;;;;;5.20;4.80;;;;;;;;;;5030950;28;20434;-70
2023/01/23 09:07:36;;;;;;;5.50;5.10;;;;;;;;;;5032084;28;20927;-67
2023/01/23 09:10:02;;;;;;;5.37;5.07;;;;;;;;;;5032066;28;20458;-67
2023/01/23 09:12:28;;;;;;;4.37;4.10;;;;;;;;;;5031828;28;20427;-66
2023/01/23 09:14:54;;;;;;;4.40;4.20;;;;;;;;;;5031015;28;20446;-67
2023/01/23 09:17:20;;;;;;;5.63;5.13;;;;;;;;;;5031968;28;20427;-67
2023/01/23 09:19:46;;;;;;;6.50;5.30;;;;;;;;;;5029844;28;20434;-68
2023/01/23 09:22:12;;;;;;;5.03;4.73;;;;;;;;;;5033099;28;20446;-67
2023/01/23 09:24:38;;;;;;;5.10;4.90;;;;;;;;;;5032779;28;20796;-69
2023/01/23 09:27:04;;;;;;;4.80;4.60;;;;;;;;;;5031564;28;20457;-68
2023/01/23 09:29:30;;;;;;;4.80;4.40;;;;;;;;;;5015087;28;20447;-71
2023/01/23 09:31:57;;;;;;;4.73;4.43;;;;;;;;;;5033391;28;20717;-71
2023/01/23 09:34:23;;;;;;;5.33;4.83;;;;;;;;;;5032606;28;21060;-67
2023/01/23 09:36:49;;;;;;;4.53;4.27;;;;;;;;;;5032170;28;20434;-66
2023/01/23 09:39:15;;;;;;;4.50;4.30;;;;;;;;;;5032630;28;20427;-66
2023/01/23 09:41:43;;;;;;;4.93;4.63;;;;;;;;;;5033026;28;20423;-68
2023/01/23 09:44:12;;;;;;;4.20;4.10;;;;;;;;;;5031790;28;20435;-68
2023/01/23 09:46:47;;;;;;;4.40;4.20;;;;;;;;;;5014601;28;20431;-67
2023/01/23 09:49:33;;;;;;;3.53;3.33;;;;;;;;;;5013439;28;20740;-69
2023/01/23 09:52:06;;;;;;;7.90;4.57;;;;;;;;;;5031947;28;20439;-67
2023/01/23 09:54:45;;;;;;;4.10;3.90;;;;;;;;;;5032586;28;21017;-67
2023/01/23 09:57:14;;;;;;;4.40;4.10;;;;;;;;;;5031902;28;20493;-66
2023/01/23 09:59:41;;;;;;;4.87;4.57;;;;;;;;;;5032747;28;20431;-66
2023/01/23 10:02:18;;;;;;;4.37;4.17;;;;;;;;;;5032245;28;20470;-66
2023/01/23 10:04:45;;;;;;;4.97;4.70;;;;;;;;;;5015049;28;20434;-67
2023/01/23 10:07:31;;;;;;;5.57;5.27;;;;;;;;;;5031382;28;20442;-68
2023/01/23 10:10:15;;;;;;;6.03;5.60;;;;;;;;;;4982607;28;20428;-66
2023/01/23 10:12:50;;;;;;;5.47;5.07;;;;;;;;;;5031598;28;20471;-66
2023/01/23 10:15:21;;;;;;;6.07;5.77;;;;;;;;;;5031463;28;20422;-71
2023/01/23 10:17:50;;;;;;;5.23;4.93;;;;;;;;;;5031783;28;20481;-67
2023/01/23 10:20:29;;;;;;;5.80;5.40;;;;;;;;;;5032112;28;20443;-68
2023/01/23 10:22:55;;;;;;;5.03;4.73;;;;;;;;;;5013706;28;20449;-67
2023/01/23 10:25:26;;;;;;;6.07;5.47;;;;;;;;;;5031898;28;20435;-69
2023/01/23 10:27:55;;;;;;;5.67;5.27;;;;;;;;;;5030739;28;20443;-66
2023/01/23 10:30:32;;;;;;;4.50;4.10;;;;;;;;;;5014509;28;20423;-68
2023/01/23 10:33:00;;;;;;;5.23;5.03;;;;;;;;;;5031396;28;20589;-66
2023/01/23 10:35:34;;;;;;;5.67;5.20;;;;;;;;;;5031478;28;20442;-68
2023/01/23 10:38:04;;;;;;;5.57;5.20;;;;;;;;;;5014226;28;20430;-68
2023/01/23 10:43:19;;;;;;;5.63;5.13;;;;;;;;;;5030434;28;20415;-66
2023/01/23 10:45:48;;;;;;;6.20;5.80;;;;;;;;;;5031346;28;20444;-66
2023/01/23 10:48:26;;;;;;;4.87;4.53;;;;;;;;;;5031457;28;20423;-66
2023/01/23 10:50:53;;;;;;;5.47;5.10;;;;;;;;;;5031418;28;20574;-66
2023/01/23 10:53:20;;;;;;;5.63;4.90;;;;;;;;;;5031746;28;20467;-66
2023/01/23 10:55:46;;;;;;;4.50;4.23;;;;;;;;;;5030194;28;20435;-68
2023/01/23 10:58:32;;;;;;;6.80;6.13;;;;;;;;;;5030639;28;20926;-66
2023/01/23 11:01:01;;;;;;;5.03;4.60;;;;;;;;;;5031389;28;20439;-66
2023/01/23 11:03:29;;;;;;;5.33;4.83;;;;;;;;;;5031879;28;20415;-67
2023/01/23 11:05:59;;;;;;;4.83;4.53;;;;;;;;;;5030810;28;20446;-68
2023/01/23 11:08:27;;;;;;;5.20;4.80;;;;;;;;;;5031474;28;20431;-66
2023/01/23 11:10:54;;;;;;;4.43;4.23;;;;;;;;;;5031366;28;20439;-67
2023/01/23 11:13:27;;;;;;;5.70;5.30;;;;;;;;;;5030411;28;20489;-67
2023/01/23 11:15:53;;;;;;;4.97;4.60;;;;;;;;;;5030587;28;20803;-68
2023/01/23 11:18:28;;;;;;;5.20;4.83;;;;;;;;;;5013376;28;20432;-69
2023/01/23 11:20:54;;;;;;;5.43;5.13;;;;;;;;;;5031064;28;20430;-69
2023/01/23 11:23:20;;;;;;;5.27;4.90;;;;;;;;;;5030563;28;20497;-67
2023/01/23 11:25:51;;;;;;;3.50;3.30;;;;;;;;;;5012902;28;20431;-67
2023/01/23 11:28:16;;;;;;;11.13;5.00;;;;;;;;;;5029467;28;20973;-67
2023/01/23 11:30:57;;;;;;;3.63;3.53;;;;;;;;;;5031102;28;20431;-66
2023/01/23 11:33:33;;;;;;;2.90;2.80;;;;;;;;;;5031353;28;20491;-66
2023/01/23 11:36:02;;;;;;;7.80;3.00;;;;;;;;;;5027364;28;20435;-69
2023/01/23 11:38:32;;;;;;;10.27;2.93;;;;;;;;;;5029535;28;20927;-67
2023/01/23 11:40:58;;;;;;;3.07;2.83;;;;;;;;;;5029732;28;20424;-66
2023/01/23 11:43:24;;;;;;;3.77;3.57;;;;;;;;;;5029489;28;20442;-67
2023/01/23 11:45:53;;;;;;;4.20;3.30;;;;;;;;;;5029311;28;21154;-68
2023/01/23 11:48:38;;;;;;;2.60;2.50;;;;;;;;;;5029057;28;20789;-69
2023/01/23 11:51:15;;;;;;;3.30;3.10;;;;;;;;;;5029647;28;20509;-69
2023/01/23 11:53:51;;;;;;;5.13;3.00;;;;;;;;;;5029758;28;20893;-65
2023/01/23 11:56:23;;;;;;;8.93;4.00;;;;;;;;;;5030496;28;20411;-68
2023/01/23 11:59:15;;;;;;;3.60;3.30;;;;;;;;;;5028344;28;20434;-68
2023/01/23 12:01:53;;;;;;;14.20;3.17;;;;;;;;;;5011898;28;20459;-66
2023/01/23 12:04:19;;;;;;;4.03;3.73;;;;;;;;;;5028318;28;20437;-72
2023/01/23 12:07:04;;;;;;;3.33;3.23;;;;;;;;;;5029739;28;20778;-68
2023/01/23 12:09:48;;;;;;;8.23;3.20;;;;;;;;;;5028411;28;20459;-71
2023/01/23 12:12:35;;;;;;;3.70;3.60;;;;;;;;;;5029576;28;20430;-67
2023/01/23 12:15:13;;;;;;;3.73;3.53;;;;;;;;;;5012594;28;20509;-67
2023/01/23 12:17:46;;;;;;;3.23;3.10;;;;;;;;;;5029349;28;20865;-69
2023/01/23 12:20:30;;;;;;;9.50;3.70;;;;;;;;;;5012087;28;20951;-67
2023/01/23 12:22:59;;;;;;;3.40;3.30;;;;;;;;;;5029395;28;20443;-69
2023/01/23 12:25:39;;;;;;;6.90;4.90;;;;;;;;;;5027934;28;20685;-67
2023/01/23 12:28:20;;;;;;;3.57;3.40;;;;;;;;;;5009941;28;20500;-66
2023/01/23 12:30:53;;;;;;;3.07;2.13;;;;;;;;;;5027049;28;20432;-69
2023/01/23 12:33:21;;;;;;;4.07;3.97;;;;;;;;;;5028026;28;20986;-67
2023/01/23 12:35:51;;;;;;;2.60;2.50;;;;;;;;;;5028431;28;20510;-73
2023/01/23 12:38:38;;;;;;;4.93;4.00;;;;;;;;;;5027990;28;20442;-69
2023/01/23 12:41:24;;;;;;;3.50;3.40;;;;;;;;;;5029202;28;20805;-66
2023/01/23 12:43:55;;;;;;;3.57;3.47;;;;;;;;;;5028880;28;20481;-72
2023/01/23 12:46:39;;;;;;;3.17;3.07;;;;;;;;;;5029556;28;20874;-68
2023/01/23 12:49:16;;;;;;;3.83;3.53;;;;;;;;;;5029361;28;20500;-67
2023/01/23 12:51:45;;;;;;;3.37;3.27;;;;;;;;;;5029303;28;20961;-66
2023/01/23 12:54:15;;;;;;;4.10;3.90;;;;;;;;;;5029978;28;20998;-67
2023/01/23 12:56:42;;;;;;;4.50;4.30;;;;;;;;;;5028455;28;20438;-71
2023/01/23 12:59:20;;;;;;;3.67;3.53;;;;;;;;;;5029633;28;20431;-66
2023/01/23 13:01:46;;;;;;;3.93;3.73;;;;;;;;;;5028660;28;20426;-69
2023/01/23 13:04:18;;;;;;;6.93;3.77;;;;;;;;;;5028486;28;20798;-67
2023/01/23 13:07:01;;;;;;;4.17;4.03;;;;;;;;;;5028934;28;20435;-67
2023/01/23 13:09:27;;;;;;;4.23;3.93;;;;;;;;;;5028563;28;20924;-67
2023/01/23 13:12:01;;;;;;;3.80;3.13;;;;;;;;;;5028904;28;20526;-69
2023/01/23 13:14:30;;;;;;;3.50;3.30;;;;;;;;;;5029518;28;20482;-70
2023/01/23 13:16:56;;;;;;;4.33;3.90;;;;;;;;;;5028949;28;20431;-69
2023/01/23 13:22:13;;;;;;;4.33;4.03;;;;;;;;;;5027080;28;20418;-72
2023/01/23 13:27:35;;;;;;;4.50;4.20;;;;;;;;;;5029088;28;20441;-70
2023/01/23 13:30:02;;;;;;;6.20;5.60;;;;;;;;;;5029408;28;20911;-68
2023/01/23 13:32:28;;;;;;;6.00;5.37;;;;;;;;;;5028331;28;20868;-70
2023/01/23 13:34:55;;;;;;;4.80;4.50;;;;;;;;;;5029272;28;20777;-69
2023/01/23 13:37:44;;;;;;;5.13;4.83;;;;;;;;;;5028935;28;20470;-71
2023/01/23 13:40:13;;;;;;;5.73;5.30;;;;;;;;;;5015748;28;20450;-67
2023/01/23 13:42:39;;;;;;;5.70;5.20;;;;;;;;;;5011071;28;20502;-69
2023/01/23 13:45:25;;;;;;;5.87;5.50;;;;;;;;;;5028782;28;20537;-69
2023/01/23 13:51:01;;;;;;;13.47;4.70;;;;;;;;;;5030398;28;20953;-67
2023/01/23 13:59:01;;;;;;;4.53;4.27;;;;;;;;;;5032567;28;20514;-66
2023/01/23 14:07:04;;;;;;;8.03;7.43;;;;;;;;;;5031925;28;20426;-67
2023/01/23 14:09:31;;;;;;;10.90;6.53;;;;;;;;;;5032687;28;20529;-69
2023/01/23 14:11:57;;;;;;;5.43;4.93;;;;;;;;;;5031624;28;20438;-66
2023/01/23 14:17:08;;;;;;;33.20;7.17;;;;;;;;;;5031783;28;20489;-66
2023/01/23 14:19:38;;;;;;;22.93;15.27;;;;;;;;;;5032264;28;20522;-67
2023/01/23 14:22:05;;;;;;;5.37;4.87;;;;;;;;;;5031460;28;20466;-68
2023/01/23 14:24:44;;;;;;;5.80;5.40;;;;;;;;;;5032154;28;20443;-68
2023/01/23 14:27:19;;;;;;;6.40;5.90;;;;;;;;;;5027869;28;20433;-67
2023/01/23 14:29:58;;;;;;;12.13;6.13;;;;;;;;;;5031154;28;20443;-67
2023/01/23 14:32:24;;;;;;;5.53;5.07;;;;;;;;;;5032040;28;20433;-66
2023/01/23 14:34:50;;;;;;;5.03;4.03;;;;;;;;;;5031293;28;20478;-70
2023/01/23 14:37:16;;;;;;;6.00;5.53;;;;;;;;;;5013886;28;20442;-67
2023/01/23 14:39:46;;;;;;;6.70;6.30;;;;;;;;;;5013366;28;20432;-68
2023/01/23 14:42:21;;;;;;;6.70;6.07;;;;;;;;;;5030871;28;20765;-67
2023/01/23 14:44:47;;;;;;;8.63;6.60;;;;;;;;;;5031459;28;20518;-70
2023/01/23 14:47:17;;;;;;;8.33;6.30;;;;;;;;;;5013381;28;20458;-69
2023/01/23 14:49:45;;;;;;;6.60;6.10;;;;;;;;;;5031152;28;20485;-67
2023/01/23 14:52:21;;;;;;;6.37;5.80;;;;;;;;;;5029355;28;20431;-68
2023/01/23 14:54:47;;;;;;;9.10;5.70;;;;;;;;;;5031116;28;21049;-68
2023/01/23 14:57:13;;;;;;;8.70;7.27;;;;;;;;;;5094535;22;20631;-67
2023/01/23 14:59:40;;;;;;;7.40;6.10;;;;;;;;;;5011531;28;20440;-67
2023/01/23 15:02:24;;;;;;;7.83;7.13;;;;;;;;;;5008980;28;20863;-68
2023/01/23 15:05:10;;;;;;;7.23;6.33;;;;;;;;;;5010552;28;20442;-68
2023/01/23 15:07:42;;;;;;;7.87;7.07;;;;;;;;;;5009969;28;20438;-68
2023/01/23 15:10:13;;;;;;;8.50;7.27;;;;;;;;;;5010029;28;20459;-67
2023/01/23 15:12:39;;;;;;;4.47;4.17;;;;;;;;;;5006703;28;20443;-67
2023/01/23 15:15:06;;;;;;;8.67;6.23;;;;;;;;;;5010701;28;20436;-69
2023/01/23 15:17:32;;;;;;;7.13;6.57;;;;;;;;;;5010422;28;20420;-72
2023/01/23 15:19:58;;;;;;;7.67;6.50;;;;;;;;;;5011660;28;20531;-70
2023/01/23 15:22:28;;;;;;;10.43;6.97;;;;;;;;;;5011745;28;20427;-66